Time;durP1;ratioP1;P1;durP2;ratioP2;P2;SDS_P1;SDS_P2;PMS_P1;PMS_P2;Temp;Humidity;BMP_temperature;BMP_pressure;BME280_temperature;BME280_humidity;BME280_pressure;Samples;Min_cycle;Max_cycle;Signal;HPM_P1;HPM_P2
2021/04/05 00:00:20;;;;;;;13.30;8.63;;;2.70;81.70;;;;;;5007766;28;20214;-83
2021/04/05 00:03:08;;;;;;;11.97;7.83;;;2.60;81.70;;;;;;5003836;28;20364;-83
2021/04/05 00:05:38;;;;;;;11.83;7.93;;;2.60;81.90;;;;;;5002625;28;20274;-82
2021/04/05 00:08:07;;;;;;;12.93;8.80;;;2.50;81.80;;;;;;5007027;28;20215;-81
2021/04/05 00:10:37;;;;;;;11.20;8.27;;;2.50;82.00;;;;;;5000705;28;20203;-83
2021/04/05 00:13:10;;;;;;;12.30;8.30;;;2.50;82.20;;;;;;5006536;28;20208;-82
2021/04/05 00:15:38;;;;;;;11.67;8.00;;;2.60;82.30;;;;;;5011956;28;20215;-82
2021/04/05 00:18:06;;;;;;;13.03;8.23;;;2.60;82.20;;;;;;5011103;28;20795;-82
2021/04/05 00:20:37;;;;;;;15.70;8.33;;;2.60;82.20;;;;;;5001144;28;20518;-81
2021/04/05 00:23:06;;;;;;;14.53;8.63;;;2.60;82.20;;;;;;5005742;28;20214;-82
2021/04/05 00:25:34;;;;;;;12.10;9.53;;;2.60;82.10;;;;;;5020080;28;20262;-82
2021/04/05 00:28:02;;;;;;;13.17;8.80;;;2.60;82.30;;;;;;5016873;28;20300;-82
2021/04/05 00:30:33;;;;;;;13.93;9.33;;;2.50;82.30;;;;;;5018105;28;20206;-83
2021/04/05 00:33:01;;;;;;;15.10;9.07;;;2.60;82.40;;;;;;5001837;28;20210;-83
2021/04/05 00:35:30;;;;;;;12.40;8.80;;;2.70;82.20;;;;;;5005176;28;20361;-83
2021/04/05 00:37:59;;;;;;;13.43;8.90;;;2.70;82.10;;;;;;5000792;28;20766;-83
2021/04/05 00:40:31;;;;;;;11.97;8.37;;;2.70;82.00;;;;;;5008018;28;20199;-82
2021/04/05 00:42:59;;;;;;;13.80;9.20;;;2.70;82.10;;;;;;5002906;28;20203;-82
2021/04/05 00:45:29;;;;;;;13.07;9.23;;;2.60;82.10;;;;;;5004145;28;20584;-82
2021/04/05 00:47:57;;;;;;;12.90;8.77;;;2.60;82.30;;;;;;5000799;28;20207;-82
2021/04/05 00:50:28;;;;;;;13.40;9.43;;;2.60;82.30;;;;;;5005106;28;20238;-81
2021/04/05 00:52:57;;;;;;;15.37;9.67;;;2.60;82.30;;;;;;4999337;28;20206;-82
2021/04/05 00:55:25;;;;;;;12.10;8.83;;;2.70;82.20;;;;;;5002626;28;20669;-84
2021/04/05 00:57:55;;;;;;;15.03;9.10;;;2.70;82.10;;;;;;5002668;28;20246;-81
2021/04/05 01:00:32;;;;;;;13.17;9.07;;;2.70;82.10;;;;;;5005704;28;20210;-83
2021/04/05 01:03:01;;;;;;;14.83;9.20;;;2.70;82.20;;;;;;5012747;28;20506;-82
2021/04/05 01:05:29;;;;;;;11.10;8.67;;;2.70;82.20;;;;;;5025822;28;20187;-82
2021/04/05 01:07:57;;;;;;;12.10;9.50;;;2.70;82.10;;;;;;5017108;28;20508;-82
2021/04/05 01:10:26;;;;;;;13.80;9.17;;;2.70;82.10;;;;;;5008425;28;20670;-83
2021/04/05 01:12:53;;;;;;;12.07;8.67;;;2.70;82.20;;;;;;5000830;28;20204;-83
2021/04/05 01:15:21;;;;;;;12.70;9.33;;;2.70;82.20;;;;;;5000567;28;20736;-83
2021/04/05 01:17:50;;;;;;;13.63;9.13;;;2.70;82.20;;;;;;5009250;28;20211;-83
2021/04/05 01:20:19;;;;;;;11.97;8.67;;;2.70;82.20;;;;;;5022385;28;20226;-83
2021/04/05 01:22:51;;;;;;;14.90;9.47;;;2.60;82.10;;;;;;5003654;28;20204;-83
2021/04/05 01:25:20;;;;;;;13.97;9.50;;;2.60;82.30;;;;;;5018712;28;20688;-83
2021/04/05 01:27:49;;;;;;;14.07;9.50;;;2.60;82.20;;;;;;5009051;28;20199;-82
2021/04/05 01:30:33;;;;;;;13.43;8.93;;;2.60;82.20;;;;;;5003152;28;20253;-83
2021/04/05 01:33:07;;;;;;;14.50;9.93;;;2.50;82.20;;;;;;5003816;28;20211;-82
2021/04/05 01:35:43;;;;;;;13.73;9.47;;;2.50;82.30;;;;;;5005391;28;20377;-83
2021/04/05 01:38:13;;;;;;;14.20;9.50;;;2.50;82.40;;;;;;5005787;28;20230;-82
2021/04/05 01:40:43;;;;;;;14.07;9.43;;;2.40;82.30;;;;;;5002443;28;20215;-82
2021/04/05 01:43:11;;;;;;;13.83;9.63;;;2.40;82.50;;;;;;5007963;28;20276;-83
2021/04/05 01:45:41;;;;;;;17.73;9.57;;;2.40;82.50;;;;;;5006662;28;20684;-82
2021/04/05 01:48:10;;;;;;;15.97;9.83;;;2.50;82.50;;;;;;5003266;28;20203;-81
2021/04/05 01:50:38;;;;;;;12.23;8.90;;;2.50;82.30;;;;;;5016976;28;20215;-83
2021/04/05 01:53:06;;;;;;;13.27;9.80;;;2.60;82.20;;;;;;5016330;28;20462;-82
2021/04/05 01:55:36;;;;;;;13.23;9.43;;;2.60;82.10;;;;;;5019128;28;20204;-82
2021/04/05 01:58:06;;;;;;;14.40;9.70;;;2.60;82.00;;;;;;5001768;28;22825;-82
2021/04/05 02:00:36;;;;;;;14.50;9.80;;;2.70;81.90;;;;;;5010895;28;20191;-81
2021/04/05 02:03:06;;;;;;;14.93;9.70;;;2.60;81.80;;;;;;4999745;28;20258;-83
2021/04/05 02:05:35;;;;;;;14.37;9.77;;;2.50;81.90;;;;;;5000858;28;20289;-83
2021/04/05 02:08:06;;;;;;;14.70;10.13;;;2.50;82.20;;;;;;5008622;28;20306;-80
2021/04/05 02:10:35;;;;;;;15.30;10.37;;;2.40;82.10;;;;;;5005476;28;20199;-81
2021/04/05 02:13:04;;;;;;;15.53;10.70;;;2.30;82.20;;;;;;5015459;28;20823;-83
2021/04/05 02:15:34;;;;;;;17.43;10.20;;;2.30;82.60;;;;;;5006772;28;20234;-83
2021/04/05 02:18:03;;;;;;;14.57;9.63;;;2.30;82.60;;;;;;5001171;28;20679;-82
2021/04/05 02:20:31;;;;;;;13.40;9.80;;;2.30;82.60;;;;;;5011901;28;20204;-83
2021/04/05 02:22:59;;;;;;;14.77;10.30;;;2.30;82.70;;;;;;4999822;28;20219;-81
2021/04/05 02:25:30;;;;;;;14.63;10.30;;;2.30;82.70;;;;;;5019383;28;20255;-83
2021/04/05 02:27:59;;;;;;;14.27;10.03;;;2.30;82.60;;;;;;5014324;28;20212;-82
2021/04/05 02:30:28;;;;;;;17.27;10.13;;;2.30;82.50;;;;;;5005764;28;20974;-82
2021/04/05 02:32:59;;;;;;;15.00;10.30;;;2.30;82.60;;;;;;5010194;28;20195;-81
2021/04/05 02:35:30;;;;;;;14.23;10.43;;;2.30;82.50;;;;;;5014352;28;20207;-82
2021/04/05 02:38:00;;;;;;;17.60;10.97;;;2.30;82.40;;;;;;5017036;28;20235;-81
2021/04/05 02:40:28;;;;;;;15.53;10.27;;;2.20;82.40;;;;;;5013006;28;20208;-83
2021/04/05 02:42:58;;;;;;;15.50;10.57;;;2.20;82.50;;;;;;5011303;28;20215;-83
2021/04/05 02:45:27;;;;;;;15.27;10.77;;;2.10;82.50;;;;;;5018902;28;20214;-83
2021/04/05 02:47:58;;;;;;;15.63;10.63;;;2.00;82.80;;;;;;5027851;28;20181;-83
2021/04/05 02:50:27;;;;;;;16.13;11.07;;;2.00;83.00;;;;;;5030362;28;20226;-82
2021/04/05 02:52:58;;;;;;;18.50;11.40;;;2.00;83.10;;;;;;5019405;28;20811;-84
2021/04/05 02:55:27;;;;;;;18.30;11.10;;;2.10;83.00;;;;;;5030203;28;20202;-83
2021/04/05 02:57:56;;;;;;;16.93;11.60;;;2.10;83.00;;;;;;5027759;28;20222;-84
2021/04/05 03:00:27;;;;;;;18.90;11.40;;;2.20;82.90;;;;;;5024767;28;20186;-83
2021/04/05 03:02:57;;;;;;;16.47;10.80;;;2.10;82.80;;;;;;5024441;28;20712;-83
2021/04/05 03:05:26;;;;;;;18.70;12.20;;;2.10;82.80;;;;;;5011916;28;20206;-82
2021/04/05 03:07:55;;;;;;;17.77;11.33;;;2.20;82.90;;;;;;5009965;28;20689;-84
2021/04/05 03:10:25;;;;;;;17.63;11.97;;;2.10;82.90;;;;;;5026354;28;20218;-83
2021/04/05 03:12:56;;;;;;;20.53;12.17;;;2.10;82.90;;;;;;5025355;28;20188;-82
2021/04/05 03:15:25;;;;;;;17.07;11.47;;;2.00;82.90;;;;;;5016946;28;20759;-83
2021/04/05 03:17:57;;;;;;;19.57;11.80;;;1.90;83.00;;;;;;5019222;28;20230;-82
2021/04/05 03:20:29;;;;;;;21.33;12.23;;;2.00;83.10;;;;;;5024887;28;20198;-83
2021/04/05 03:22:58;;;;;;;19.10;12.47;;;1.90;83.30;;;;;;5024492;28;20203;-82
2021/04/05 03:25:28;;;;;;;19.90;12.80;;;1.90;83.40;;;;;;5010001;28;20222;-82
2021/04/05 03:27:56;;;;;;;18.47;12.17;;;1.90;83.30;;;;;;5019507;28;20210;-83
2021/04/05 03:30:27;;;;;;;18.33;12.83;;;1.90;83.40;;;;;;5015633;28;20213;-81
2021/04/05 03:33:04;;;;;;;19.53;12.17;;;1.80;83.40;;;;;;5020004;28;20202;-82
2021/04/05 03:35:38;;;;;;;18.93;12.60;;;1.80;83.60;;;;;;5016380;28;20298;-84
2021/04/05 03:38:05;;;;;;;20.30;13.70;;;1.90;83.70;;;;;;5017253;28;20285;-82
2021/04/05 03:40:33;;;;;;;21.43;14.17;;;1.80;83.60;;;;;;5016282;28;20724;-81
2021/04/05 03:43:07;;;;;;;18.67;12.73;;;1.90;83.60;;;;;;5021069;28;20202;-82
2021/04/05 03:45:42;;;;;;;20.60;13.50;;;1.70;83.70;;;;;;5022980;28;20205;-83
2021/04/05 03:48:18;;;;;;;21.37;13.37;;;1.80;83.70;;;;;;5022924;28;20222;-81
2021/04/05 03:50:51;;;;;;;18.67;12.83;;;1.80;83.80;;;;;;5020409;28;20567;-82
2021/04/05 03:53:29;;;;;;;20.30;13.87;;;1.90;83.90;;;;;;5006853;28;20207;-83
2021/04/05 03:55:59;;;;;;;20.90;13.73;;;1.70;83.90;;;;;;5012557;28;20265;-83
2021/04/05 03:58:31;;;;;;;20.33;13.73;;;1.70;83.90;;;;;;5011951;28;20223;-82
2021/04/05 04:01:09;;;;;;;19.47;13.20;;;1.80;83.80;;;;;;5010245;28;20203;-83
2021/04/05 04:03:46;;;;;;;24.20;14.27;;;1.70;83.80;;;;;;5011340;28;20339;-82
2021/04/05 04:06:17;;;;;;;21.60;13.33;;;1.90;83.90;;;;;;5010486;28;20266;-82
2021/04/05 04:08:47;;;;;;;23.50;14.53;;;1.80;83.90;;;;;;5011587;28;20685;-81
2021/04/05 04:11:22;;;;;;;23.47;14.00;;;1.80;84.10;;;;;;5008815;28;20217;-84
2021/04/05 04:13:52;;;;;;;23.10;14.80;;;1.80;84.10;;;;;;5003117;28;20203;-82
2021/04/05 04:16:22;;;;;;;25.10;15.10;;;1.80;84.10;;;;;;5003143;28;20585;-83
2021/04/05 04:18:52;;;;;;;21.67;14.23;;;1.80;84.20;;;;;;5003725;28;20245;-83
2021/04/05 04:21:20;;;;;;;21.77;14.13;;;1.80;83.90;;;;;;5003926;28;20203;-81
2021/04/05 04:23:49;;;;;;;21.73;14.07;;;1.90;83.80;;;;;;5002309;28;20204;-82
2021/04/05 04:26:16;;;;;;;22.63;14.77;;;1.90;83.70;;;;;;5001177;28;20731;-82
2021/04/05 04:28:45;;;;;;;20.30;13.60;;;1.90;83.60;;;;;;5003135;28;20680;-82
2021/04/05 04:31:13;;;;;;;25.23;14.40;;;1.90;83.60;;;;;;5004989;28;20203;-83
2021/04/05 04:33:44;;;;;;;22.47;15.40;;;1.80;83.60;;;;;;5013115;28;20267;-81
2021/04/05 04:36:11;;;;;;;22.60;14.73;;;2.00;83.70;;;;;;5011309;28;20208;-82
2021/04/05 04:38:40;;;;;;;25.13;14.80;;;2.00;83.70;;;;;;5006653;28;20709;-82
2021/04/05 04:41:08;;;;;;;23.23;14.40;;;2.00;83.60;;;;;;5006336;28;20217;-82
2021/04/05 04:43:36;;;;;;;22.00;15.13;;;2.00;83.50;;;;;;5007096;28;20215;-81
2021/04/05 04:46:03;;;;;;;25.10;15.77;;;2.00;83.50;;;;;;5026039;28;20183;-83
2021/04/05 04:48:31;;;;;;;24.37;14.90;;;2.10;83.60;;;;;;5017898;28;20215;-82
2021/04/05 04:51:00;;;;;;;25.00;14.70;;;2.20;83.50;;;;;;5017758;28;20226;-81
2021/04/05 04:53:28;;;;;;;26.40;14.90;;;2.20;83.40;;;;;;5002792;28;20199;-81
2021/04/05 04:55:56;;;;;;;21.13;14.23;;;2.20;83.50;;;;;;5003379;28;20318;-82
2021/04/05 04:58:24;;;;;;;22.77;15.53;;;2.30;83.30;;;;;;4999392;28;20445;-83
2021/04/05 05:00:51;;;;;;;24.67;15.37;;;2.40;83.30;;;;;;5006755;28;20600;-82
2021/04/05 05:03:22;;;;;;;22.63;14.50;;;2.40;83.20;;;;;;5009510;28;20214;-82
2021/04/05 05:05:51;;;;;;;26.53;15.20;;;2.50;83.30;;;;;;5013844;28;20192;-83
2021/04/05 05:08:21;;;;;;;26.10;15.83;;;2.50;83.20;;;;;;5013444;28;20198;-83
2021/04/05 05:10:50;;;;;;;24.23;16.43;;;2.60;82.90;;;;;;5008584;28;20270;-81
2021/04/05 05:13:18;;;;;;;24.70;15.17;;;2.60;82.80;;;;;;5002312;28;20199;-81
2021/04/05 05:15:46;;;;;;;19.30;14.53;;;2.70;82.90;;;;;;5007132;28;20214;-82
2021/04/05 05:18:15;;;;;;;27.13;15.83;;;2.80;82.70;;;;;;5002263;28;20377;-82
2021/04/05 05:20:43;;;;;;;21.83;14.90;;;2.80;82.50;;;;;;5000937;28;20246;-81
2021/04/05 05:23:12;;;;;;;23.20;15.47;;;2.90;82.30;;;;;;5016668;28;20207;-81
2021/04/05 05:25:41;;;;;;;22.83;15.23;;;3.00;82.00;;;;;;5007862;28;20539;-81
2021/04/05 05:28:10;;;;;;;24.80;14.93;;;3.10;82.00;;;;;;5004041;28;20214;-82
2021/04/05 05:30:40;;;;;;;21.77;14.37;;;3.20;81.90;;;;;;4998269;28;20903;-81
2021/04/05 05:33:09;;;;;;;24.67;16.40;;;3.30;81.90;;;;;;5002355;28;20220;-83
2021/04/05 05:35:37;;;;;;;23.97;14.97;;;3.30;81.50;;;;;;4998867;28;20737;-82
2021/04/05 05:38:06;;;;;;;22.13;14.13;;;3.40;81.70;;;;;;5005416;28;20241;-82
2021/04/05 05:40:35;;;;;;;23.57;15.47;;;3.40;81.40;;;;;;5004139;28;20997;-82
2021/04/05 05:43:37;;;;;;;21.53;15.07;;;3.50;81.20;;;;;;5002009;28;20231;-83
2021/04/05 05:46:13;;;;;;;25.63;15.77;;;3.60;81.10;;;;;;4993171;28;20710;-82
2021/04/05 05:48:52;;;;;;;26.40;15.53;;;3.60;80.90;;;;;;5002502;28;20578;-81
2021/04/05 05:51:34;;;;;;;25.17;14.97;;;3.70;81.00;;;;;;5000717;28;20552;-82
2021/04/05 05:54:12;;;;;;;22.70;15.07;;;3.80;80.80;;;;;;5004227;28;20220;-80
2021/04/05 05:56:44;;;;;;;24.90;15.40;;;3.90;80.70;;;;;;5014577;28;20432;-82
2021/04/05 05:59:31;;;;;;;23.07;15.17;;;4.00;80.50;;;;;;5012463;28;20277;-83
2021/04/05 06:02:06;;;;;;;23.70;14.97;;;4.10;80.50;;;;;;5014947;28;20210;-82
2021/04/05 06:04:49;;;;;;;25.93;15.67;;;4.20;80.20;;;;;;5006578;28;20324;-82
2021/04/05 06:07:23;;;;;;;23.40;14.77;;;4.30;80.10;;;;;;5008216;28;20228;-82
2021/04/05 06:10:02;;;;;;;23.33;14.50;;;4.40;80.10;;;;;;5019054;28;20227;-82
2021/04/05 06:12:40;;;;;;;25.03;15.63;;;4.60;79.90;;;;;;5024875;28;20201;-82
2021/04/05 06:15:16;;;;;;;22.30;15.07;;;4.70;79.80;;;;;;5025480;28;20195;-83
2021/04/05 06:18:02;;;;;;;19.60;13.97;;;4.80;79.60;;;;;;5023062;28;20209;-79
2021/04/05 06:20:37;;;;;;;21.20;14.10;;;5.00;79.60;;;;;;5019963;28;20236;-81
2021/04/05 06:23:15;;;;;;;25.57;15.57;;;5.20;79.50;;;;;;5011839;28;20289;-82
2021/04/05 06:26:04;;;;;;;21.97;13.90;;;5.20;79.30;;;;;;5017346;28;21008;-82
2021/04/05 06:28:40;;;;;;;23.10;13.77;;;5.30;79.20;;;;;;5015472;28;20209;-83
2021/04/05 06:31:24;;;;;;;23.03;15.20;;;5.40;79.10;;;;;;5012527;28;20222;-83
2021/04/05 06:33:54;;;;;;;22.40;14.47;;;5.50;79.00;;;;;;5016320;28;20207;-82
2021/04/05 06:36:34;;;;;;;24.17;14.27;;;5.60;78.80;;;;;;5010265;28;20227;-83
2021/04/05 06:39:06;;;;;;;18.60;13.30;;;5.80;78.70;;;;;;5012368;28;20227;-83
2021/04/05 06:42:11;;;;;;;19.30;14.30;;;5.90;78.80;;;;;;5015715;28;20223;-80
2021/04/05 06:45:18;;;;;;;19.87;12.97;;;6.00;78.60;;;;;;5007599;28;20302;-81
2021/04/05 06:48:16;;;;;;;21.13;13.60;;;6.10;78.50;;;;;;4979450;28;20215;-84
2021/04/05 06:50:52;;;;;;;20.07;13.57;;;6.30;78.30;;;;;;5012611;28;20926;-82
2021/04/05 06:53:56;;;;;;;18.70;13.37;;;6.30;78.10;;;;;;5014525;28;20242;-82
2021/04/05 06:56:34;;;;;;;18.23;12.70;;;6.50;78.30;;;;;;5014753;28;20286;-81
2021/04/05 06:59:25;;;;;;;18.17;12.77;;;6.70;77.80;;;;;;5007365;28;20689;-82
2021/04/05 07:02:20;;;;;;;20.43;13.17;;;6.70;77.60;;;;;;5009484;28;20262;-82
2021/04/05 07:05:06;;;;;;;17.40;12.03;;;6.90;77.60;;;;;;5007049;28;20428;-82
2021/04/05 07:07:44;;;;;;;19.20;12.83;;;6.90;77.50;;;;;;5010269;28;20455;-84
2021/04/05 07:10:20;;;;;;;20.33;12.27;;;7.00;77.30;;;;;;5011839;28;20199;-84
2021/04/05 07:13:00;;;;;;;19.47;12.80;;;7.20;77.30;;;;;;5008770;28;20209;-82
2021/04/05 07:15:39;;;;;;;16.67;11.80;;;7.10;76.90;;;;;;5007994;28;20209;-82
2021/04/05 07:18:16;;;;;;;17.13;11.93;;;7.20;76.90;;;;;;5011258;28;20363;-83
2021/04/05 07:21:04;;;;;;;18.43;11.80;;;7.30;77.00;;;;;;5009720;28;20200;-82
2021/04/05 07:23:47;;;;;;;16.13;11.37;;;7.60;77.20;;;;;;5021628;28;20193;-82
2021/04/05 07:26:21;;;;;;;20.23;12.17;;;7.60;77.10;;;;;;5015810;28;20228;-82
2021/04/05 07:28:56;;;;;;;17.47;11.70;;;7.80;77.30;;;;;;5024041;28;20183;-82
2021/04/05 07:31:36;;;;;;;16.37;11.50;;;8.00;76.60;;;;;;5025060;28;20209;-82
2021/04/05 07:34:19;;;;;;;18.03;10.73;;;8.10;76.70;;;;;;5020944;28;20202;-82
2021/04/05 07:36:52;;;;;;;19.47;11.23;;;8.20;76.40;;;;;;5018444;28;20236;-82
2021/04/05 07:39:27;;;;;;;16.53;10.97;;;8.30;76.20;;;;;;5026066;28;20210;-82
2021/04/05 07:42:01;;;;;;;17.97;11.30;;;8.40;76.10;;;;;;5022048;28;20214;-82
2021/04/05 07:44:46;;;;;;;16.67;11.17;;;8.40;76.20;;;;;;5023705;28;20205;-80
2021/04/05 07:47:28;;;;;;;14.27;10.53;;;8.50;75.90;;;;;;5011595;28;20567;-82
2021/04/05 07:50:03;;;;;;;16.40;10.47;;;8.60;75.40;;;;;;5020411;28;20253;-82
2021/04/05 07:52:42;;;;;;;15.13;10.53;;;8.70;75.20;;;;;;5022133;28;20201;-81
2021/04/05 07:55:11;;;;;;;14.07;10.10;;;8.90;75.00;;;;;;5027370;28;20206;-82
2021/04/05 07:57:50;;;;;;;13.30;10.30;;;8.90;74.60;;;;;;5023694;28;20202;-82
2021/04/05 08:00:28;;;;;;;14.67;9.60;;;8.90;74.40;;;;;;5024997;28;20222;-80
2021/04/05 08:03:15;;;;;;;13.83;9.33;;;8.90;73.50;;;;;;5007362;28;20207;-80
2021/04/05 08:05:57;;;;;;;12.30;9.07;;;9.00;73.40;;;;;;5003089;28;20199;-83
2021/04/05 08:08:43;;;;;;;12.10;8.70;;;9.20;72.70;;;;;;5013427;28;20203;-82
2021/04/05 08:11:36;;;;;;;13.67;8.63;;;9.20;71.90;;;;;;5011784;28;20249;-83
2021/04/05 08:14:14;;;;;;;11.93;8.13;;;9.40;71.00;;;;;;5014643;28;20196;-82
2021/04/05 08:16:53;;;;;;;13.33;8.60;;;9.30;70.40;;;;;;5013971;28;20192;-83
2021/04/05 08:19:30;;;;;;;12.53;8.03;;;9.40;70.10;;;;;;5021104;28;20285;-81
2021/04/05 08:22:04;;;;;;;11.90;7.93;;;9.30;69.70;;;;;;5020278;28;20195;-81
2021/04/05 08:24:43;;;;;;;10.33;7.37;;;9.40;70.00;;;;;;5016730;28;20273;-81
2021/04/05 08:27:19;;;;;;;10.67;7.30;;;9.50;69.40;;;;;;5022211;28;20593;-84
2021/04/05 08:29:55;;;;;;;9.73;7.27;;;9.50;69.40;;;;;;5016757;28;20206;-83
2021/04/05 08:32:32;;;;;;;9.23;7.33;;;9.50;69.00;;;;;;5022096;28;20291;-82
2021/04/05 08:35:32;;;;;;;10.57;7.23;;;9.70;68.90;;;;;;5011675;28;20207;-81
2021/04/05 08:38:52;;;;;;;10.07;7.43;;;9.50;68.40;;;;;;5138162;27;20539;-83
2021/04/05 08:41:29;;;;;;;9.77;7.33;;;9.70;68.40;;;;;;5118806;27;20200;-83
2021/04/05 08:44:25;;;;;;;11.07;7.60;;;9.90;68.00;;;;;;5128715;27;20206;-82
2021/04/05 08:46:58;;;;;;;11.43;7.53;;;10.20;68.00;;;;;;5108675;28;20219;-82
2021/04/05 08:49:27;;;;;;;9.30;7.10;;;10.40;67.90;;;;;;5130871;27;20203;-83
2021/04/05 08:52:00;;;;;;;10.33;7.93;;;10.50;67.10;;;;;;5130830;27;20270;-84
2021/04/05 08:54:31;;;;;;;9.23;7.03;;;10.60;66.70;;;;;;5127250;27;20220;-81
2021/04/05 08:57:14;;;;;;;9.60;7.17;;;10.70;66.30;;;;;;5127123;27;20245;-83
2021/04/05 08:59:50;;;;;;;9.77;6.83;;;10.80;66.20;;;;;;5129805;27;20206;-83
2021/04/05 09:02:21;;;;;;;12.13;7.30;;;10.80;66.10;;;;;;5126033;27;20267;-83
2021/04/05 09:04:50;;;;;;;9.83;7.37;;;10.90;66.00;;;;;;5138388;22;20198;-84
2021/04/05 09:07:30;;;;;;;9.87;7.23;;;11.00;65.70;;;;;;5081506;28;20213;-82
2021/04/05 09:10:04;;;;;;;10.60;7.40;;;11.10;65.90;;;;;;5100163;28;20204;-82
2021/04/05 09:12:35;;;;;;;9.47;7.03;;;11.10;65.50;;;;;;5087072;28;20245;-83
2021/04/05 09:15:42;;;;;;;10.83;7.83;;;11.10;65.70;;;;;;5079700;28;20214;-83
2021/04/05 09:18:22;;;;;;;9.30;6.60;;;11.00;65.40;;;;;;5017378;28;20243;-83
2021/04/05 09:21:08;;;;;;;11.50;7.27;;;11.10;65.20;;;;;;5087947;28;20231;-83
2021/04/05 09:24:10;;;;;;;9.87;6.93;;;11.20;64.80;;;;;;5093490;28;20188;-84
2021/04/05 09:27:09;;;;;;;10.67;6.67;;;11.30;65.30;;;;;;5049893;28;20216;-82
2021/04/05 09:29:41;;;;;;;9.77;6.87;;;11.50;64.80;;;;;;5077874;28;20538;-83
2021/04/05 09:32:42;;;;;;;10.27;6.97;;;11.50;64.40;;;;;;5076513;28;20204;-82
2021/04/05 09:35:51;;;;;;;9.80;6.63;;;11.60;64.30;;;;;;5076194;28;20672;-82
2021/04/05 09:38:35;;;;;;;10.97;7.47;;;11.60;63.70;;;;;;5049884;28;20240;-82
2021/04/05 09:41:44;;;;;;;8.37;6.33;;;11.50;64.20;;;;;;5093298;28;20177;-83
2021/04/05 09:44:35;;;;;;;8.37;6.53;;;11.40;63.50;;;;;;5019761;28;20200;-83
2021/04/05 09:47:23;;;;;;;7.80;6.30;;;11.40;63.50;;;;;;5081509;28;20223;-82
2021/04/05 09:50:08;;;;;;;9.20;7.13;;;11.40;64.40;;;;;;5088381;28;20211;-84
2021/04/05 09:53:02;;;;;;;9.80;7.03;;;11.50;63.50;;;;;;5065268;28;20391;-83
2021/04/05 09:55:32;;;;;;;9.53;6.97;;;11.60;63.10;;;;;;5062032;28;20205;-82
2021/04/05 09:58:04;;;;;;;9.57;6.60;;;11.70;63.20;;;;;;5068220;28;20240;-83
2021/04/05 10:00:34;;;;;;;8.77;6.67;;;11.80;62.90;;;;;;5065687;28;20205;-81
2021/04/05 10:03:04;;;;;;;8.43;6.63;;;11.70;63.00;;;;;;5055315;28;20193;-83
2021/04/05 10:05:35;;;;;;;10.30;6.77;;;11.70;62.60;;;;;;5073105;28;20374;-84
2021/04/05 10:08:04;;;;;;;10.90;6.90;;;11.80;62.90;;;;;;5065220;28;20206;-80
2021/04/05 10:10:37;;;;;;;8.43;6.20;;;12.00;62.80;;;;;;5065703;28;20228;-83
2021/04/05 10:13:07;;;;;;;9.33;6.90;;;12.10;62.30;;;;;;5063541;28;20197;-81
2021/04/05 10:15:36;;;;;;;8.53;6.50;;;12.10;62.10;;;;;;5066082;28;20208;-81
2021/04/05 10:18:11;;;;;;;8.20;6.47;;;12.10;62.20;;;;;;5063888;28;20233;-82
2021/04/05 10:20:39;;;;;;;6.97;6.23;;;12.20;62.20;;;;;;5067115;28;20193;-83
2021/04/05 10:23:09;;;;;;;9.03;6.43;;;12.30;62.00;;;;;;5079705;28;20205;-84
2021/04/05 10:25:38;;;;;;;8.37;5.60;;;12.30;62.20;;;;;;5081377;28;20205;-84
2021/04/05 10:28:09;;;;;;;11.77;6.50;;;12.40;61.90;;;;;;5072731;28;20217;-84
2021/04/05 10:30:40;;;;;;;7.83;6.47;;;12.50;61.40;;;;;;5088436;28;20205;-82
2021/04/05 10:33:14;;;;;;;10.07;6.30;;;12.50;61.50;;;;;;5086709;28;20201;-84
2021/04/05 10:35:45;;;;;;;9.23;5.97;;;12.50;61.60;;;;;;5090688;28;20256;-81
2021/04/05 10:38:16;;;;;;;8.97;6.43;;;12.50;61.50;;;;;;5063895;28;20229;-83
2021/04/05 10:40:44;;;;;;;9.37;6.10;;;12.50;61.20;;;;;;5069302;28;20205;-84
2021/04/05 10:43:23;;;;;;;8.43;6.40;;;12.40;61.00;;;;;;5067654;28;20214;-83
2021/04/05 10:45:58;;;;;;;8.33;6.00;;;12.30;61.30;;;;;;5068279;28;20266;-82
2021/04/05 10:48:38;;;;;;;8.60;5.63;;;12.40;61.20;;;;;;5064736;28;20198;-84
2021/04/05 10:51:15;;;;;;;10.80;6.07;;;12.50;61.50;;;;;;5066493;28;20255;-82
2021/04/05 10:54:18;;;;;;;9.07;6.07;;;12.80;61.40;;;;;;5087210;28;20209;-83
2021/04/05 10:56:54;;;;;;;7.83;5.53;;;12.90;61.00;;;;;;5083100;28;20221;-82
2021/04/05 10:59:46;;;;;;;7.90;5.40;;;12.90;60.80;;;;;;5053936;28;20281;-84
2021/04/05 11:02:26;;;;;;;6.93;6.00;;;13.00;60.80;;;;;;5065667;28;20209;-83
2021/04/05 11:04:56;;;;;;;7.83;5.47;;;13.00;60.10;;;;;;5074622;28;20190;-82
2021/04/05 11:07:33;;;;;;;8.10;6.07;;;13.00;60.40;;;;;;5070979;28;20202;-83
2021/04/05 11:10:04;;;;;;;7.00;5.37;;;13.10;60.50;;;;;;5071819;28;20209;-83
2021/04/05 11:12:36;;;;;;;8.40;5.63;;;13.00;60.00;;;;;;5070401;28;20304;-82
2021/04/05 11:15:09;;;;;;;8.30;5.73;;;13.00;60.30;;;;;;5073607;28;20204;-82
2021/04/05 11:17:45;;;;;;;10.10;5.50;;;13.10;60.60;;;;;;5075503;28;20229;-82
2021/04/05 11:20:14;;;;;;;8.70;5.03;;;13.30;60.50;;;;;;5067251;28;20198;-83
2021/04/05 11:22:44;;;;;;;8.80;5.50;;;13.30;60.40;;;;;;5066089;28;20216;-84
2021/04/05 11:25:22;;;;;;;10.03;5.90;;;13.40;58.90;;;;;;5064558;28;20194;-84
2021/04/05 11:27:54;;;;;;;8.57;5.47;;;13.50;59.20;;;;;;5072727;28;20205;-83
2021/04/05 11:30:25;;;;;;;8.93;5.70;;;13.70;58.70;;;;;;5052886;28;20209;-83
2021/04/05 11:32:58;;;;;;;10.60;5.63;;;13.70;58.60;;;;;;5071379;28;20193;-83
2021/04/05 11:35:31;;;;;;;9.63;5.67;;;13.50;58.20;;;;;;5056082;28;20206;-83
2021/04/05 11:38:05;;;;;;;8.20;5.60;;;13.50;57.90;;;;;;5068302;28;20659;-82
2021/04/05 11:40:36;;;;;;;9.37;5.53;;;13.40;58.20;;;;;;5066162;28;20370;-83
2021/04/05 11:43:14;;;;;;;7.93;5.33;;;13.30;58.60;;;;;;5065185;28;20205;-82
2021/04/05 11:45:44;;;;;;;8.43;5.37;;;13.20;58.40;;;;;;5070817;28;20534;-84
2021/04/05 11:48:22;;;;;;;9.23;5.00;;;13.20;59.50;;;;;;5086833;28;20182;-84
2021/04/05 11:50:51;;;;;;;6.53;5.00;;;13.10;58.90;;;;;;5087172;28;20177;-83
2021/04/05 11:53:28;;;;;;;6.33;4.83;;;13.00;57.70;;;;;;5065464;28;20210;-81
2021/04/05 11:56:05;;;;;;;8.13;4.73;;;12.80;57.50;;;;;;5085085;28;20182;-83
2021/04/05 11:58:40;;;;;;;9.07;5.80;;;12.70;57.40;;;;;;5085659;28;20209;-82
2021/04/05 12:01:16;;;;;;;8.20;5.03;;;12.60;57.80;;;;;;5087208;28;20550;-82
2021/04/05 12:03:57;;;;;;;7.03;5.10;;;12.50;58.30;;;;;;5085764;28;20274;-83
2021/04/05 12:06:35;;;;;;;8.13;4.80;;;12.60;59.50;;;;;;5074277;28;20209;-82
2021/04/05 12:09:09;;;;;;;9.40;5.40;;;12.60;58.90;;;;;;5158856;22;20235;-82
2021/04/05 12:11:44;;;;;;;6.93;5.20;;;12.70;58.90;;;;;;5092058;28;20910;-83
2021/04/05 12:17:31;;;;;;;8.57;5.17;;;12.90;58.40;;;;;;4201227;26;20295;-83
2021/04/05 12:20:24;;;;;;;8.60;5.10;;;13.00;58.60;;;;;;5150789;22;20234;-83
2021/04/05 12:23:00;;;;;;;7.27;4.93;;;13.10;57.70;;;;;;5057266;28;20275;-83
2021/04/05 12:25:51;;;;;;;7.20;4.33;;;13.00;56.90;;;;;;5080625;28;20437;-86
2021/04/05 12:28:22;;;;;;;7.30;5.17;;;13.10;56.70;;;;;;5078948;28;20261;-84
2021/04/05 12:30:56;;;;;;;7.63;5.13;;;13.10;56.90;;;;;;5079723;28;20215;-82
2021/04/05 12:33:44;;;;;;;10.53;5.00;;;13.20;56.90;;;;;;5145442;22;20904;-83
2021/04/05 12:36:19;;;;;;;7.70;4.87;;;13.30;56.60;;;;;;5075478;28;20209;-84
2021/04/05 12:38:58;;;;;;;6.73;4.77;;;13.30;56.40;;;;;;5102185;22;20234;-83
2021/04/05 12:41:37;;;;;;;8.07;4.93;;;13.30;56.00;;;;;;5055009;28;20216;-86
2021/04/05 12:44:31;;;;;;;7.47;5.30;;;13.30;54.90;;;;;;5135170;23;21230;-83
2021/04/05 12:47:02;;;;;;;8.23;4.53;;;13.20;55.60;;;;;;5058364;28;20201;-85
2021/04/05 12:49:36;;;;;;;7.53;4.73;;;13.30;55.50;;;;;;5081203;28;20186;-83
2021/04/05 12:52:23;;;;;;;8.37;5.33;;;13.40;55.40;;;;;;5215826;22;20241;-84
2021/04/05 12:55:05;;;;;;;7.50;5.07;;;13.60;56.00;;;;;;5068830;28;20189;-85
2021/04/05 12:58:03;;;;;;;9.17;5.07;;;13.50;54.80;;;;;;5188377;22;20540;-85
2021/04/05 13:00:40;;;;;;;9.67;5.60;;;13.50;55.00;;;;;;5036532;28;20216;-84
2021/04/05 13:03:14;;;;;;;10.33;5.07;;;13.40;54.70;;;;;;5281149;23;20556;-83
2021/04/05 13:05:58;;;;;;;9.87;5.60;;;13.50;54.60;;;;;;5083124;23;20377;-85
2021/04/05 13:08:40;;;;;;;10.57;5.93;;;13.50;55.50;;;;;;5036960;28;20201;-87
2021/04/05 13:11:19;;;;;;;7.53;4.90;;;13.60;55.20;;;;;;5040043;28;20521;-84
2021/04/05 13:13:53;;;;;;;7.87;4.90;;;13.50;55.60;;;;;;5036134;28;20222;-84
2021/04/05 13:16:29;;;;;;;7.93;4.97;;;13.40;55.80;;;;;;5066376;23;20300;-84
2021/04/05 13:19:03;;;;;;;8.33;5.30;;;13.40;55.60;;;;;;5047492;28;20289;-83
2021/04/05 13:21:42;;;;;;;9.00;4.73;;;13.30;55.80;;;;;;5240144;23;20250;-83
2021/04/05 13:24:41;;;;;;;8.53;5.40;;;13.30;55.80;;;;;;5058622;28;20190;-82
2021/04/05 13:27:44;;;;;;;11.27;5.40;;;13.20;56.20;;;;;;5152618;23;20230;-83